Time;durP1;ratioP1;P1;durP2;ratioP2;P2;SDS_P1;SDS_P2;PMS_P1;PMS_P2;Temp;Humidity;BMP_temperature;BMP_pressure;BME280_temperature;BME280_humidity;BME280_pressure;Samples;Min_cycle;Max_cycle;Signal;HPM_P1;HPM_P2
2023/12/11 00:02:00;;;;;;;145.33;29.67;;;1.00;99.90;0.00;98865;;;;578168;246;24079;-78
2023/12/11 00:04:24;;;;;;;79.73;25.67;;;1.00;99.90;0.00;98866;;;;577731;248;24062;-77
2023/12/11 00:06:52;;;;;;;115.60;28.03;;;1.00;99.90;0.00;98860;;;;578293;246;24089;-77
2023/12/11 00:09:20;;;;;;;101.77;29.23;;;1.00;99.90;0.00;98852;;;;577774;245;24091;-77
2023/12/11 00:11:48;;;;;;;157.33;30.37;;;1.00;99.90;0.00;98855;;;;577935;246;24088;-77
2023/12/11 00:14:16;;;;;;;97.67;25.10;;;1.00;99.90;0.00;98852;;;;577692;246;24116;-76
2023/12/11 00:16:46;;;;;;;83.93;24.67;;;1.00;99.90;0.00;98847;;;;577996;246;24087;-77
2023/12/11 00:19:12;;;;;;;82.07;22.80;;;1.00;99.90;0.10;98853;;;;577445;249;24080;-77
2023/12/11 00:21:40;;;;;;;95.33;24.27;;;1.10;99.90;0.10;98848;;;;577894;246;24129;-77
2023/12/11 00:24:08;;;;;;;103.47;27.70;;;1.10;99.90;0.10;98830;;;;577607;247;24107;-76
2023/12/11 00:26:36;;;;;;;51.70;17.70;;;1.10;99.90;0.10;98834;;;;572415;247;35206;-77
2023/12/11 00:29:04;;;;;;;24.97;10.87;;;1.10;99.90;0.10;98828;;;;577938;246;24096;-78
2023/12/11 00:31:32;;;;;;;19.57;9.67;;;1.20;99.90;0.10;98815;;;;577619;249;24090;-77
2023/12/11 00:34:00;;;;;;;26.80;12.60;;;1.10;99.90;0.20;98822;;;;577702;246;24083;-78
2023/12/11 00:36:28;;;;;;;23.23;9.53;;;1.20;99.90;0.20;98826;;;;577361;246;24114;-77
2023/12/11 00:39:00;;;;;;;30.73;12.30;;;1.20;99.90;0.20;98822;;;;577666;246;24076;-78
2023/12/11 00:41:25;;;;;;;95.50;20.60;;;1.20;99.90;0.20;98801;;;;572525;249;35126;-77
2023/12/11 00:43:53;;;;;;;44.43;11.03;;;1.20;99.90;0.20;98801;;;;577264;246;24071;-79
2023/12/11 00:46:24;;;;;;;21.83;9.50;;;1.20;99.90;0.20;98794;;;;577640;246;24060;-79
2023/12/11 00:48:51;;;;;;;26.83;9.97;;;1.20;99.90;0.20;98793;;;;577328;246;24132;-76
2023/12/11 00:51:19;;;;;;;26.17;12.23;;;1.20;99.90;0.20;98786;;;;577652;246;24076;-77
2023/12/11 00:53:47;;;;;;;33.80;10.93;;;1.20;99.90;0.20;98782;;;;577343;249;24102;-77
2023/12/11 00:56:19;;;;;;;20.87;10.77;;;1.20;99.90;0.20;98777;;;;577621;246;24067;-76
2023/12/11 00:58:43;;;;;;;33.50;13.50;;;1.20;99.90;0.20;98769;;;;576752;247;24077;-79
2023/12/11 01:01:11;;;;;;;20.90;8.27;;;1.20;99.90;0.20;98778;;;;577620;246;24156;-76
2023/12/11 01:03:39;;;;;;;15.70;6.60;;;1.20;99.90;0.20;98788;;;;577161;246;24087;-76
2023/12/11 01:06:07;;;;;;;37.07;13.83;;;1.20;99.90;0.20;98773;;;;577573;246;24082;-77
2023/12/11 01:08:38;;;;;;;98.83;22.23;;;1.20;99.90;0.20;98777;;;;577222;245;24071;-76
2023/12/11 01:11:05;;;;;;;94.40;21.90;;;1.20;99.90;0.20;98773;;;;579077;245;24078;-76
2023/12/11 01:13:33;;;;;;;156.87;26.07;;;1.20;99.90;0.20;98776;;;;578233;246;24093;-79
2023/12/11 01:16:01;;;;;;;158.00;28.17;;;1.20;99.90;0.20;98768;;;;577954;246;24116;-76
2023/12/11 01:18:29;;;;;;;81.00;23.77;;;1.30;99.90;0.20;98780;;;;577848;246;24113;-75
2023/12/11 01:20:58;;;;;;;184.73;28.83;;;1.20;99.90;0.20;98774;;;;578136;246;24082;-75
2023/12/11 01:23:26;;;;;;;72.00;21.63;;;1.20;99.90;0.20;98770;;;;577872;246;24075;-77
2023/12/11 01:25:53;;;;;;;122.03;26.77;;;1.30;99.90;0.20;98761;;;;578184;246;24082;-75
2023/12/11 01:28:21;;;;;;;114.93;23.97;;;1.20;99.90;0.30;98758;;;;577504;246;24071;-75
2023/12/11 01:30:49;;;;;;;159.43;28.07;;;1.30;99.90;0.30;98756;;;;577938;246;24150;-76
2023/12/11 01:33:18;;;;;;;102.07;23.87;;;1.30;99.90;0.30;98750;;;;577503;246;24075;-75
2023/12/11 01:35:46;;;;;;;94.87;21.13;;;1.30;99.90;0.30;98748;;;;577495;247;24078;-75
2023/12/11 01:38:14;;;;;;;98.87;24.00;;;1.30;99.90;0.30;98748;;;;577958;246;24123;-75
2023/12/11 01:40:41;;;;;;;119.97;25.80;;;1.30;99.90;0.30;98733;;;;577714;246;24090;-75
2023/12/11 01:43:15;;;;;;;152.87;28.53;;;1.30;99.90;0.30;98725;;;;577648;247;24114;-76
2023/12/11 01:45:44;;;;;;;116.17;23.90;;;1.30;99.90;0.30;98725;;;;577141;246;24079;-77
2023/12/11 01:48:16;;;;;;;91.17;19.63;;;1.30;99.90;0.30;98723;;;;577149;247;24075;-76
2023/12/11 01:50:41;;;;;;;82.63;20.77;;;1.30;99.90;0.30;98723;;;;577223;249;24067;-75
2023/12/11 01:53:13;;;;;;;96.60;22.90;;;1.30;99.90;0.30;98713;;;;577288;246;24153;-75
2023/12/11 01:55:40;;;;;;;95.47;22.53;;;1.30;99.90;0.30;98716;;;;577139;247;24079;-75
2023/12/11 01:58:08;;;;;;;90.57;21.80;;;1.30;99.90;0.30;98714;;;;577188;249;24103;-76
2023/12/11 02:00:32;;;;;;;127.00;24.87;;;1.30;99.90;0.30;98711;;;;577390;249;24086;-75
2023/12/11 02:03:04;;;;;;;95.47;20.43;;;1.30;99.90;0.30;98713;;;;577156;246;24127;-77
2023/12/11 02:05:28;;;;;;;76.33;20.17;;;1.30;99.90;0.30;98707;;;;577230;249;24161;-75
2023/12/11 02:07:56;;;;;;;65.57;19.60;;;1.30;99.90;0.30;98706;;;;577236;240;24097;-76
2023/12/11 02:10:24;;;;;;;69.93;19.93;;;1.30;99.90;0.30;98700;;;;577338;244;24079;-79
2023/12/11 02:12:51;;;;;;;146.47;22.87;;;1.30;99.90;0.30;98700;;;;577610;246;24087;-77
2023/12/11 02:15:41;;;;;;;102.17;21.87;;;1.30;99.90;0.30;98696;;;;577138;247;24111;-79
2023/12/11 02:18:09;;;;;;;96.57;22.47;;;1.30;99.90;0.30;98695;;;;577168;247;24082;-81
2023/12/11 02:20:36;;;;;;;101.20;22.80;;;1.40;99.90;0.30;98691;;;;577991;246;24070;-79
2023/12/11 02:23:04;;;;;;;122.70;22.50;;;1.40;99.90;0.40;98685;;;;578535;246;24128;-81
2023/12/11 02:25:32;;;;;;;85.50;21.63;;;1.40;99.90;0.30;98684;;;;578321;247;24112;-80
2023/12/11 02:28:04;;;;;;;122.97;23.77;;;1.40;99.90;0.30;98684;;;;578439;246;24116;-76
2023/12/11 02:30:28;;;;;;;80.70;21.50;;;1.40;99.90;0.30;98680;;;;577472;248;24097;-83
2023/12/11 02:32:56;;;;;;;88.13;21.83;;;1.40;99.90;0.40;98676;;;;578178;246;24145;-81
2023/12/11 02:35:24;;;;;;;97.67;23.33;;;1.40;99.90;0.40;98678;;;;577803;246;24094;-83
2023/12/11 02:37:52;;;;;;;130.43;22.50;;;1.40;99.90;0.40;98678;;;;578376;246;24078;-81
2023/12/11 02:40:20;;;;;;;141.27;24.93;;;1.40;99.90;0.40;98666;;;;577739;246;24134;-77
2023/12/11 02:42:48;;;;;;;101.00;22.23;;;1.40;99.90;0.40;98670;;;;577423;247;24106;-77
2023/12/11 02:45:16;;;;;;;88.77;22.90;;;1.40;99.90;0.40;98662;;;;577441;247;24083;-77
2023/12/11 02:47:44;;;;;;;70.33;18.53;;;1.40;99.90;0.40;98674;;;;577920;246;24079;-77
2023/12/11 02:50:12;;;;;;;127.00;23.23;;;1.40;99.90;0.40;98664;;;;577603;246;24139;-77
2023/12/11 02:52:40;;;;;;;107.60;24.40;;;1.40;99.90;0.40;98663;;;;577423;247;24108;-80
2023/12/11 02:55:08;;;;;;;110.80;24.43;;;1.40;99.90;0.40;98664;;;;577678;246;24072;-80
2023/12/11 02:57:36;;;;;;;96.23;22.53;;;1.40;99.90;0.50;98656;;;;577234;247;24086;-80
2023/12/11 03:00:04;;;;;;;105.07;21.37;;;1.50;99.90;0.50;98657;;;;577659;246;24109;-80
2023/12/11 03:02:32;;;;;;;52.37;16.73;;;1.50;99.90;0.50;98647;;;;577409;249;24091;-77
2023/12/11 03:05:00;;;;;;;73.90;18.57;;;1.50;99.90;0.50;98634;;;;577843;246;25141;-78
2023/12/11 03:07:28;;;;;;;78.33;18.73;;;1.50;99.90;0.60;98644;;;;577356;246;24076;-81
2023/12/11 03:09:56;;;;;;;75.43;17.93;;;1.60;99.90;0.60;98644;;;;577302;245;24082;-82
2023/12/11 03:12:24;;;;;;;32.57;11.77;;;1.60;99.90;0.60;98637;;;;577603;246;24075;-79
2023/12/11 03:14:51;;;;;;;33.93;13.50;;;1.60;99.90;0.60;98635;;;;577318;246;24083;-82
2023/12/11 03:17:19;;;;;;;53.30;17.43;;;1.60;99.90;0.60;98638;;;;577651;246;24093;-81
2023/12/11 03:19:47;;;;;;;46.60;15.10;;;1.60;99.90;0.60;98634;;;;577378;246;24118;-80
2023/12/11 03:22:15;;;;;;;57.53;14.87;;;1.60;99.90;0.60;98638;;;;573281;246;35138;-78
2023/12/11 03:24:43;;;;;;;28.53;10.03;;;1.60;99.90;0.60;98629;;;;578077;246;24097;-76
2023/12/11 03:27:11;;;;;;;9.47;6.83;;;1.60;99.90;0.60;98625;;;;577609;246;24115;-80
2023/12/11 03:29:42;;;;;;;9.37;6.87;;;1.60;99.90;0.60;98622;;;;577954;247;24085;-76
2023/12/11 03:32:07;;;;;;;11.80;7.53;;;1.60;99.90;0.60;98623;;;;577940;247;24062;-82
2023/12/11 03:34:35;;;;;;;11.03;7.53;;;1.70;99.90;0.70;98622;;;;578604;246;24086;-82
2023/12/11 03:37:02;;;;;;;18.07;8.07;;;1.60;99.90;0.70;98622;;;;578684;246;24089;-79
2023/12/11 03:39:30;;;;;;;16.37;8.37;;;1.70;99.90;0.70;98619;;;;578125;246;24130;-84
2023/12/11 03:41:58;;;;;;;16.67;8.07;;;1.70;99.90;0.70;98614;;;;578287;246;24097;-83
2023/12/11 03:44:26;;;;;;;19.67;9.47;;;1.70;99.90;0.70;98621;;;;577840;246;24092;-76
2023/12/11 03:46:55;;;;;;;20.43;8.63;;;1.70;99.90;0.70;98619;;;;578175;246;25113;-78
2023/12/11 03:49:23;;;;;;;15.37;8.60;;;1.70;99.90;0.80;98611;;;;577864;246;24088;-80
2023/12/11 03:51:50;;;;;;;14.10;7.00;;;1.70;99.90;0.70;98612;;;;577936;246;24095;-80
2023/12/11 03:54:18;;;;;;;14.83;7.27;;;1.70;99.90;0.70;98603;;;;577697;246;24110;-83
2023/12/11 03:56:46;;;;;;;14.20;7.87;;;1.70;99.90;0.70;98604;;;;577916;246;24122;-81
2023/12/11 03:59:14;;;;;;;12.10;6.43;;;1.70;99.90;0.70;98603;;;;577458;246;24099;-75
2023/12/11 04:01:42;;;;;;;15.57;8.07;;;1.70;99.90;0.70;98604;;;;577855;246;24111;-75
2023/12/11 04:04:10;;;;;;;16.03;8.07;;;1.70;99.90;0.70;98602;;;;577480;246;24090;-77
2023/12/11 04:06:38;;;;;;;12.00;6.33;;;1.70;99.90;0.70;98607;;;;577910;246;24105;-82
2023/12/11 04:09:05;;;;;;;18.30;7.13;;;1.70;99.90;0.70;98606;;;;577460;245;24108;-77
2023/12/11 04:11:34;;;;;;;13.17;6.57;;;1.70;99.90;0.80;98596;;;;577677;246;24097;-74
2023/12/11 04:14:01;;;;;;;13.57;7.20;;;1.70;99.90;0.80;98593;;;;577320;247;24106;-75
2023/12/11 04:16:29;;;;;;;11.67;7.20;;;3.20;99.90;0.80;98597;;;;577870;246;24123;-75
2023/12/11 04:18:57;;;;;;;14.90;7.87;;;1.80;99.90;0.80;98590;;;;577668;246;24108;-76
2023/12/11 04:21:25;;;;;;;10.13;5.87;;;1.80;99.90;0.80;98592;;;;577749;246;24094;-77
2023/12/11 04:23:55;;;;;;;12.63;7.03;;;1.80;99.90;0.80;98585;;;;577228;246;24086;-76
2023/12/11 04:26:21;;;;;;;13.10;7.27;;;1.90;99.90;0.90;98595;;;;577518;247;24132;-78
2023/12/11 04:28:48;;;;;;;15.00;7.97;;;1.80;99.90;0.90;98594;;;;577228;246;24096;-76
2023/12/11 04:31:16;;;;;;;12.80;5.93;;;1.80;99.90;0.90;98588;;;;577684;246;24085;-76
2023/12/11 04:33:47;;;;;;;11.00;6.00;;;1.90;99.90;0.90;98584;;;;577312;246;24119;-81
2023/12/11 04:36:13;;;;;;;13.27;7.57;;;1.90;99.90;0.90;98579;;;;577420;249;24123;-82
2023/12/11 04:38:41;;;;;;;16.03;6.93;;;1.90;99.90;1.00;98587;;;;577676;246;24133;-79
2023/12/11 04:41:09;;;;;;;13.93;7.03;;;1.90;99.90;1.00;98580;;;;577187;246;24167;-80
2023/12/11 04:43:36;;;;;;;7.70;4.93;;;2.00;99.90;1.00;98573;;;;577929;246;25112;-81
2023/12/11 04:46:07;;;;;;;9.27;6.60;;;2.00;99.90;1.00;98570;;;;578672;246;24076;-80
2023/12/11 04:48:32;;;;;;;10.87;6.57;;;2.00;99.90;1.00;98564;;;;578034;248;24098;-81
2023/12/11 04:51:00;;;;;;;9.43;5.83;;;2.00;99.90;1.00;98561;;;;578519;246;24063;-83
2023/12/11 04:53:28;;;;;;;12.87;6.03;;;2.00;99.90;1.00;98563;;;;577943;246;24110;-83
2023/12/11 04:55:56;;;;;;;10.27;5.47;;;2.00;99.90;0.90;98548;;;;578220;246;24078;-84
2023/12/11 04:58:24;;;;;;;11.20;5.83;;;1.90;99.90;1.00;98553;;;;578012;246;24103;-80
2023/12/11 05:00:52;;;;;;;10.33;6.53;;;2.00;99.90;1.00;98556;;;;578628;246;25198;-80
2023/12/11 05:03:19;;;;;;;11.13;6.90;;;1.90;99.90;1.00;98546;;;;577782;240;24065;-75
2023/12/11 05:05:48;;;;;;;12.37;6.57;;;1.90;99.90;1.00;98539;;;;577881;246;24100;-82
2023/12/11 05:08:16;;;;;;;13.23;6.90;;;2.00;99.90;1.00;98542;;;;578026;244;24076;-81
2023/12/11 05:10:44;;;;;;;16.30;6.57;;;1.90;99.90;1.00;98541;;;;577673;246;24136;-77
2023/12/11 05:13:14;;;;;;;14.90;7.80;;;1.90;99.90;1.00;98541;;;;578035;246;24078;-76
2023/12/11 05:15:39;;;;;;;18.10;6.30;;;2.00;99.90;1.00;98541;;;;577248;246;24083;-81
2023/12/11 05:18:07;;;;;;;11.87;6.47;;;2.00;99.90;1.00;98538;;;;578068;246;24103;-82
2023/12/11 05:20:35;;;;;;;8.97;5.80;;;2.00;99.90;1.00;98547;;;;577466;246;24075;-80
2023/12/11 05:23:06;;;;;;;11.93;7.37;;;2.00;99.90;1.10;98548;;;;577211;247;24118;-80
2023/12/11 05:25:31;;;;;;;12.70;6.77;;;2.10;99.90;1.10;98549;;;;577392;247;24056;-81
2023/12/11 05:27:59;;;;;;;14.63;5.37;;;2.10;99.90;1.10;98545;;;;577278;246;24092;-83
2023/12/11 05:30:31;;;;;;;14.07;4.80;;;2.10;99.90;1.10;98542;;;;577712;246;24083;-79
2023/12/11 05:32:58;;;;;;;21.43;12.00;;;2.20;99.90;1.20;98537;;;;571950;249;35170;-79
2023/12/11 05:35:23;;;;;;;19.05;12.05;;;2.20;99.90;1.20;98545;;;;572566;249;35184;-82
2023/12/11 05:37:55;;;;;;;23.80;13.17;;;2.20;99.90;1.30;98541;;;;572772;246;35229;-81
2023/12/11 05:40:19;;;;;;;16.47;8.87;;;2.30;99.90;1.40;98539;;;;576998;249;24087;-80
2023/12/11 05:42:47;;;;;;;9.77;6.37;;;2.40;99.90;1.40;98528;;;;577888;246;24074;-79
2023/12/11 05:45:15;;;;;;;8.60;5.40;;;2.40;99.90;1.40;98540;;;;577534;246;24104;-78
2023/12/11 05:47:43;;;;;;;11.03;4.83;;;2.50;99.90;1.40;98534;;;;577442;247;24102;-83
2023/12/11 05:50:12;;;;;;;8.10;4.20;;;2.50;99.90;1.50;98538;;;;577814;246;24144;-78
2023/12/11 05:52:40;;;;;;;8.20;5.00;;;2.50;99.90;1.50;98536;;;;577601;246;24079;-84
2023/12/11 05:55:08;;;;;;;13.70;5.93;;;2.50;99.90;1.50;98536;;;;577784;247;24089;-84
2023/12/11 05:57:36;;;;;;;7.53;4.10;;;2.50;99.90;1.60;98539;;;;579470;245;24078;-80
2023/12/11 06:00:03;;;;;;;9.40;5.20;;;2.60;99.90;1.60;98536;;;;578913;246;24129;-79
2023/12/11 06:02:31;;;;;;;6.27;3.93;;;2.60;99.90;1.60;98536;;;;578174;246;24054;-81
2023/12/11 06:04:59;;;;;;;6.53;4.87;;;2.60;99.90;1.60;98547;;;;578762;246;24083;-85
2023/12/11 06:07:27;;;;;;;12.60;5.30;;;2.60;99.90;1.60;98527;;;;578260;246;24097;-78
2023/12/11 06:09:55;;;;;;;6.40;4.80;;;2.60;99.90;1.70;98536;;;;578076;245;25500;-83
2023/12/11 06:12:23;;;;;;;8.47;4.93;;;2.60;99.90;1.70;98530;;;;578188;246;24137;-80
2023/12/11 06:14:51;;;;;;;8.20;5.03;;;2.70;99.90;1.70;98528;;;;577970;246;24091;-80
2023/12/11 06:17:19;;;;;;;8.37;5.63;;;2.70;99.90;1.70;98526;;;;577528;247;24096;-77
2023/12/11 06:19:46;;;;;;;12.10;6.10;;;2.70;99.90;1.70;98524;;;;577465;247;24075;-77
2023/12/11 06:22:14;;;;;;;9.87;4.20;;;2.70;99.90;1.70;98525;;;;578024;246;24102;-79
2023/12/11 06:24:45;;;;;;;13.37;6.07;;;2.70;99.90;1.70;98520;;;;577639;246;24125;-79
2023/12/11 06:27:10;;;;;;;8.53;5.07;;;2.70;99.90;1.70;98522;;;;577544;249;24135;-81
2023/12/11 06:29:38;;;;;;;14.10;5.23;;;2.70;99.90;1.80;98518;;;;577690;246;24129;-79
2023/12/11 06:32:06;;;;;;;6.97;5.67;;;2.70;99.90;1.80;98518;;;;577751;247;24106;-79
2023/12/11 06:34:34;;;;;;;10.60;5.23;;;2.70;99.90;1.80;98511;;;;577255;246;24140;-81
2023/12/11 06:37:02;;;;;;;9.17;5.57;;;2.70;99.90;1.80;98514;;;;577891;246;24086;-81
2023/12/11 06:39:29;;;;;;;10.30;5.27;;;2.80;99.90;1.80;98517;;;;577243;246;24088;-79
2023/12/11 06:41:57;;;;;;;6.47;4.77;;;2.80;99.90;1.80;98513;;;;577622;246;24101;-76
2023/12/11 06:44:25;;;;;;;8.77;5.00;;;2.80;99.90;1.80;98507;;;;577241;246;24097;-78
2023/12/11 06:46:53;;;;;;;8.93;5.50;;;2.80;99.90;1.90;98503;;;;577193;247;24070;-77
2023/12/11 06:49:24;;;;;;;13.23;5.93;;;2.80;99.90;1.90;98501;;;;577240;247;24074;-76
2023/12/11 06:51:49;;;;;;;8.90;5.87;;;2.80;99.90;1.90;98502;;;;577823;247;24080;-77
2023/12/11 06:54:20;;;;;;;10.87;4.17;;;2.80;99.90;1.90;98500;;;;578438;246;24098;-80
2023/12/11 06:56:45;;;;;;;7.93;5.27;;;2.80;99.90;1.90;98497;;;;578431;249;24095;-81
2023/12/11 06:59:16;;;;;;;7.73;5.00;;;2.60;99.90;1.90;98504;;;;578647;246;24086;-78
2023/12/11 07:01:41;;;;;;;4.97;4.43;;;2.70;99.90;1.90;98504;;;;578367;249;24131;-78
2023/12/11 07:04:09;;;;;;;10.80;6.33;;;3.10;99.90;1.90;98507;;;;578189;247;24082;-81
2023/12/11 07:06:37;;;;;;;11.53;5.90;;;2.90;99.90;1.90;98508;;;;578552;246;24080;-80
2023/12/11 07:09:05;;;;;;;8.37;5.83;;;2.90;99.90;1.90;98503;;;;579659;244;24147;-79
2023/12/11 07:11:33;;;;;;;9.00;4.87;;;2.90;99.90;2.00;98495;;;;579169;246;24113;-82
2023/12/11 07:14:01;;;;;;;8.07;6.07;;;2.90;99.90;2.00;98501;;;;578818;246;24121;-81
2023/12/11 07:16:30;;;;;;;7.20;5.50;;;2.90;99.90;2.00;98506;;;;578392;246;24078;-78
2023/12/11 07:19:01;;;;;;;8.13;6.07;;;2.90;99.90;2.00;98495;;;;577430;247;24097;-77
2023/12/11 07:21:29;;;;;;;8.63;5.00;;;2.90;99.90;2.00;98495;;;;578140;248;24097;-77
2023/12/11 07:23:53;;;;;;;18.70;5.93;;;2.80;99.90;2.00;98504;;;;577512;248;24071;-79
2023/12/11 07:26:21;;;;;;;13.23;6.13;;;3.00;99.90;2.00;98491;;;;577971;246;24074;-78
2023/12/11 07:28:49;;;;;;;11.03;6.23;;;3.00;99.90;2.00;98497;;;;577720;246;24090;-82
2023/12/11 07:31:17;;;;;;;13.53;6.67;;;3.10;99.90;2.10;98479;;;;577942;246;24105;-82
2023/12/11 07:33:45;;;;;;;13.23;6.37;;;3.00;99.90;2.10;98484;;;;578123;246;26314;-79
2023/12/11 07:36:13;;;;;;;15.13;6.43;;;3.00;99.90;2.10;98485;;;;577918;246;24201;-82
2023/12/11 07:38:41;;;;;;;11.57;5.77;;;3.10;99.90;2.10;98486;;;;577483;246;24091;-78
2023/12/11 07:41:12;;;;;;;10.10;6.23;;;3.10;99.90;2.10;98478;;;;577916;246;24082;-77
2023/12/11 07:43:36;;;;;;;11.43;6.27;;;3.10;99.90;2.10;98480;;;;576868;249;24075;-77
2023/12/11 07:46:05;;;;;;;9.77;6.13;;;3.10;99.90;2.20;98472;;;;577422;246;24118;-76
2023/12/11 07:48:34;;;;;;;9.17;6.57;;;3.10;99.90;2.20;98472;;;;577186;247;24129;-79
2023/12/11 07:51:01;;;;;;;16.50;8.00;;;3.20;99.90;2.20;98477;;;;577233;247;24124;-79
2023/12/11 07:53:29;;;;;;;21.93;8.97;;;3.20;99.90;2.20;98476;;;;577657;246;24130;-77
2023/12/11 07:55:57;;;;;;;17.43;8.47;;;3.20;99.90;2.20;98475;;;;577266;246;24094;-77
2023/12/11 07:58:25;;;;;;;13.13;7.10;;;3.20;99.90;2.20;98479;;;;577726;246;24102;-80
2023/12/11 08:00:53;;;;;;;12.33;8.07;;;3.20;99.90;2.30;98471;;;;577539;240;24087;-77
2023/12/11 08:03:21;;;;;;;37.23;16.47;;;3.20;99.90;2.30;98470;;;;572627;249;35112;-79
2023/12/11 08:05:49;;;;;;;38.05;20.80;;;3.20;99.90;2.30;98469;;;;572349;240;46007;-78
2023/12/11 08:08:17;;;;;;;20.10;10.73;;;3.20;99.90;2.30;98467;;;;577554;244;24142;-78
2023/12/11 08:10:45;;;;;;;15.50;9.77;;;3.30;99.90;2.30;98464;;;;577345;246;24130;-76
2023/12/11 08:13:13;;;;;;;14.90;9.10;;;3.30;99.90;2.30;98462;;;;577631;247;24082;-76
2023/12/11 08:15:41;;;;;;;17.43;9.70;;;3.30;99.90;2.40;98465;;;;577693;246;24067;-79
2023/12/11 08:18:09;;;;;;;18.73;9.87;;;3.30;99.90;2.40;98468;;;;577517;246;24086;-77
2023/12/11 08:20:37;;;;;;;16.83;7.07;;;3.40;99.90;2.40;98460;;;;579297;245;24086;-82
2023/12/11 08:23:05;;;;;;;24.33;12.80;;;3.30;99.90;2.40;98467;;;;578644;246;24158;-80
2023/12/11 08:25:35;;;;;;;23.60;12.97;;;3.30;99.90;2.40;98477;;;;578920;246;24059;-82
2023/12/11 08:28:00;;;;;;;40.20;20.27;;;3.30;99.90;2.30;98471;;;;573301;248;35235;-82
2023/12/11 08:30:28;;;;;;;47.55;26.52;;;3.30;99.90;2.40;98465;;;;573390;246;35178;-80
2023/12/11 08:32:56;;;;;;;32.73;15.10;;;3.30;99.90;2.40;98464;;;;577785;246;24101;-77
2023/12/11 08:35:25;;;;;;;22.60;12.00;;;3.30;99.90;2.40;98466;;;;578226;246;24071;-78
2023/12/11 08:37:53;;;;;;;28.53;12.97;;;3.30;99.90;2.40;98464;;;;577562;246;24079;-75
2023/12/11 08:40:20;;;;;;;15.10;9.53;;;3.30;99.90;2.40;98466;;;;577959;246;24118;-77
2023/12/11 08:42:48;;;;;;;13.60;10.03;;;3.30;99.90;2.40;98465;;;;577618;246;24075;-75
2023/12/11 08:45:16;;;;;;;37.53;20.47;;;3.40;99.90;2.40;98451;;;;572739;246;35187;-76
2023/12/11 08:47:44;;;;;;;40.08;23.70;;;3.30;99.90;2.40;98462;;;;572936;246;35227;-77
2023/12/11 08:50:12;;;;;;;30.33;16.60;;;3.40;99.90;2.50;98453;;;;577483;246;24094;-77
2023/12/11 08:52:40;;;;;;;21.23;12.67;;;3.40;99.90;2.50;98449;;;;577946;246;24123;-76
2023/12/11 08:55:12;;;;;;;24.83;13.17;;;3.50;99.90;2.50;98456;;;;577345;249;24099;-77
2023/12/11 08:57:36;;;;;;;16.17;9.80;;;3.50;99.90;2.60;98450;;;;577241;247;25125;-76
2023/12/11 09:00:05;;;;;;;20.27;11.03;;;3.60;99.90;2.60;98456;;;;577276;246;24075;-77
2023/12/11 09:02:32;;;;;;;14.77;10.97;;;3.60;99.90;2.60;98459;;;;577521;247;24100;-77
2023/12/11 09:05:00;;;;;;;18.70;10.27;;;3.60;99.90;2.70;98449;;;;577379;246;24071;-78
2023/12/11 09:07:28;;;;;;;25.07;14.20;;;3.60;99.90;2.60;98449;;;;577688;246;24066;-78
2023/12/11 09:09:56;;;;;;;25.53;15.23;;;3.60;99.90;2.70;98454;;;;577329;245;24108;-77
2023/12/11 09:12:24;;;;;;;24.27;13.17;;;3.70;99.90;2.70;98453;;;;577658;246;24067;-79
2023/12/11 09:14:52;;;;;;;20.97;13.73;;;3.70;99.90;2.70;98448;;;;577506;246;24087;-80
2023/12/11 09:17:20;;;;;;;20.63;12.23;;;3.70;99.90;2.70;98446;;;;577851;246;24096;-79
2023/12/11 09:19:47;;;;;;;26.13;12.10;;;3.70;99.90;2.70;98449;;;;577388;246;24088;-77
2023/12/11 09:22:15;;;;;;;16.07;10.63;;;3.70;99.90;2.70;98441;;;;577735;246;24127;-77
2023/12/11 09:24:43;;;;;;;12.70;8.87;;;3.70;99.90;2.70;98438;;;;577346;246;24149;-77
2023/12/11 09:27:12;;;;;;;19.27;12.90;;;3.70;99.90;2.80;98441;;;;577916;246;24061;-75
2023/12/11 09:29:40;;;;;;;24.13;11.40;;;3.70;99.90;2.80;98437;;;;577751;246;24105;-77
2023/12/11 09:32:08;;;;;;;25.13;12.67;;;3.70;99.90;2.80;98441;;;;579322;245;24066;-77
2023/12/11 09:34:35;;;;;;;24.63;11.03;;;3.80;99.90;2.80;98430;;;;578606;246;24107;-77
2023/12/11 09:37:07;;;;;;;22.30;10.10;;;3.80;99.90;2.80;98427;;;;578892;246;24088;-77
2023/12/11 09:39:31;;;;;;;27.13;13.60;;;3.80;99.90;2.90;98435;;;;577991;248;24096;-76
2023/12/11 09:42:00;;;;;;;19.40;10.13;;;3.80;99.90;2.90;98432;;;;578248;246;24068;-76
2023/12/11 09:44:31;;;;;;;25.13;13.33;;;3.80;99.90;2.90;98431;;;;577659;246;24108;-76
2023/12/11 09:47:10;;;;;;;25.90;13.23;;;3.80;99.90;2.90;98432;;;;577842;248;24099;-76
2023/12/11 09:49:38;;;;;;;40.43;18.77;;;3.90;99.90;3.00;98428;;;;568219;249;24059;-78
2023/12/11 09:52:09;;;;;;;39.00;18.97;;;3.90;99.90;3.00;98418;;;;577576;246;24120;-74
2023/12/11 09:54:35;;;;;;;38.07;17.30;;;3.90;99.90;3.00;98417;;;;577654;249;25153;-76
2023/12/11 09:57:02;;;;;;;35.97;17.93;;;4.00;99.90;3.10;98418;;;;577590;246;24071;-75
2023/12/11 09:59:30;;;;;;;30.97;17.07;;;4.00;99.90;3.10;98410;;;;577944;246;24132;-77
2023/12/11 10:01:58;;;;;;;41.03;18.83;;;4.00;99.90;3.10;98411;;;;577730;246;24115;-79
2023/12/11 10:04:26;;;;;;;25.17;13.43;;;4.00;99.90;3.10;98405;;;;577927;246;24146;-75
2023/12/11 10:06:54;;;;;;;29.73;19.30;;;4.00;99.90;3.10;98402;;;;577435;246;24098;-79
2023/12/11 10:09:28;;;;;;;22.83;14.60;;;4.10;99.90;3.20;98395;;;;577693;245;24083;-77
2023/12/11 10:12:02;;;;;;;24.40;15.70;;;4.10;99.90;3.20;98405;;;;577632;249;24130;-77
2023/12/11 10:14:33;;;;;;;27.13;15.07;;;4.10;99.90;3.20;98398;;;;577322;246;24079;-79
2023/12/11 10:17:01;;;;;;;32.77;14.73;;;4.20;99.90;3.30;98403;;;;577617;246;24090;-74
2023/12/11 10:19:35;;;;;;;29.97;16.20;;;4.30;99.90;3.40;98394;;;;574928;249;24136;-76
2023/12/11 10:22:03;;;;;;;29.77;15.43;;;4.40;99.90;3.50;98398;;;;567713;249;24133;-76
2023/12/11 10:24:31;;;;;;;24.10;14.57;;;4.50;99.90;3.60;98394;;;;567582;249;25104;-76
2023/12/11 10:27:02;;;;;;;32.70;15.60;;;4.50;99.90;3.70;98392;;;;565656;249;24069;-78
2023/12/11 10:29:27;;;;;;;29.47;17.00;;;4.80;99.90;3.80;98398;;;;565382;249;24110;-81
2023/12/11 10:32:03;;;;;;;24.57;15.53;;;4.70;99.90;3.80;98396;;;;567742;246;24121;-76
2023/12/11 10:34:42;;;;;;;23.80;11.87;;;4.70;99.90;3.80;98386;;;;565612;249;24065;-77
2023/12/11 10:37:09;;;;;;;31.50;14.60;;;4.70;99.90;3.80;98384;;;;567567;249;25125;-77
2023/12/11 10:39:36;;;;;;;27.40;16.17;;;4.70;99.90;3.80;98383;;;;567671;249;24098;-81
2023/12/11 10:42:16;;;;;;;23.33;12.67;;;4.80;99.90;3.90;98379;;;;566311;248;24075;-78
2023/12/11 10:44:41;;;;;;;28.00;14.63;;;4.80;99.90;4.00;98377;;;;569153;248;24148;-80
2023/12/11 10:47:09;;;;;;;29.77;11.67;;;4.90;99.90;4.20;98383;;;;568402;248;24071;-80
2023/12/11 10:49:37;;;;;;;23.37;13.80;;;5.10;99.90;4.20;98374;;;;567905;248;24085;-78
2023/12/11 10:52:06;;;;;;;25.37;12.10;;;5.30;99.90;4.30;98383;;;;576684;246;24078;-79
2023/12/11 10:54:33;;;;;;;30.70;13.13;;;5.30;99.90;4.40;98382;;;;566429;248;25106;-76
2023/12/11 10:57:04;;;;;;;39.43;22.50;;;5.40;99.90;4.50;98378;;;;563537;248;35264;-81
2023/12/11 10:59:33;;;;;;;41.05;25.20;;;5.50;99.90;4.60;98380;;;;563082;249;35321;-81
2023/12/11 11:02:02;;;;;;;42.35;21.77;;;5.60;99.90;4.60;98369;;;;560924;249;35170;-82
2023/12/11 11:04:28;;;;;;;24.93;15.77;;;5.60;99.90;4.60;98373;;;;567635;249;24102;-81
2023/12/11 11:07:01;;;;;;;28.27;14.33;;;5.60;99.90;4.60;98374;;;;565546;249;24143;-82
2023/12/11 11:09:49;;;;;;;32.00;12.27;;;5.60;99.90;4.60;98364;;;;565945;249;24108;-83
2023/12/11 11:12:21;;;;;;;27.37;12.63;;;5.50;99.90;4.60;98369;;;;567817;249;24057;-83
2023/12/11 11:14:51;;;;;;;25.83;12.50;;;5.60;99.90;4.60;98373;;;;567813;249;24074;-80
2023/12/11 11:17:17;;;;;;;23.13;10.80;;;5.60;99.90;4.70;98361;;;;567735;249;24108;-78
2023/12/11 11:20:16;;;;;;;29.03;13.13;;;5.60;99.90;4.60;98370;;;;565804;249;24063;-82
2023/12/11 11:22:40;;;;;;;26.90;12.27;;;5.50;99.90;4.60;98371;;;;567722;249;24134;-80
2023/12/11 11:25:33;;;;;;;22.43;10.10;;;5.60;99.90;4.60;98368;;;;576058;247;24101;-81
2023/12/11 11:28:02;;;;;;;36.25;18.90;;;5.50;99.90;4.60;98373;;;;558655;249;35181;-78